Utica, NY

8:02 AM EDT on April 27, 2015 (GMT -0400)
South Utica NY | Change Station
CLOSE
Current Station
Personal Weather Station
Location: Utica, NY
Elevation: 633 ft
Nearby Weather Stations

Elev 633 ft 43.08 °N, 75.26 °W | Updated 11 minutes ago

Overcast
Overcast
42.2 °F
Feels Like 42 °F
N
2.0
Wind Variable Wind from South
Gusts 6.0 mph

Today
High -- | Low -- °F
--% Chance of Precip.
Yesterday
High -- | Low -- °F
Precip. -- in
6:00 AM 7:57 PM
Waxing Gibbous, 64% visible
Pressure 29.75 in
Visibility 10.0 miles
Clouds Few 2100 ft
Overcast 7000 ft
Windchill 42 °F
Dew Point 37 °F
Humidity 81%
Rainfall 0.00 in
Snow Depth Not available.
UV 0 out of 12
Pollen 8.30 out of 12
Air Quality Not available.
Flu Activity Widespread
METAR KRME 271153Z 28004KT 10SM FEW021 OVC070 05/02 A2975 RMK AO2 SLP074 T00500017 10050 20033 53007

More Conditions Fewer Conditions

Pressure 29.75 in
Visibility 10.0 miles
Clouds Few 2100 ft
Overcast 7000 ft
Windchill 42 °F
Dew Point 37 °F
Humidity 81%
Rainfall 0.00 in
Snow Depth Not available.
UV 0 out of 12
Pollen 8.30 out of 12
Air Quality Not available.
Flu Activity Widespread
METAR KRME 271153Z 28004KT 10SM FEW021 OVC070 05/02 A2975 RMK AO2 SLP074 T00500017 10050 20033 53007

More Conditions Fewer Conditions

10-Day Weather Forecast

Almanac

Astronomy

Apr. 27, 2015 Rise Set
Actual Time 6:00 AM EDT 7:57 PM EDT
Civil Twilight 5:30 AM EDT 8:27 PM EDT
Nautical Twilight 4:52 AM EDT 9:05 PM EDT
Astronomical Twilight 4:11 AM EDT 9:46 PM EDT
Moon 1:54 PM EDT 2:49 AM EDT
Length of Visible Light 14h 57m
Length of Day
13h 56m
Tomorrow will be 2m 36s longer.
Waxing Gibbous, 64% of the Moon is Illuminated
Today
Waxing Gibbous
May 3
Full
May 11
Last Quarter
May 18
New
May 25
First Quarter

Today's Extremes

State Highs State Lows

Community

WunderPhotos

Upload Photos

1,817,284 photos uploaded!

Nearby

Air Quality

  Air Quality AQ Index Pollutant
Yesterday Good
OZONE
Yesterday Good
PM2.5
Monday Good
PM2.5

Snow Depth

Station Depth Elevation
No new snow has been reported.

Earthquake Activity

City Distance Mag. Time & Date
No recent earthquake activity has been reported nearby.
Minimum magnitude displayed is 2.5.

Coastal Water Temperatures

Place Temperature
No Stations Reporting

Nearby Weather Stations